createdAt,value
2023-01-17T00:01:29.327Z,3.90
2023-01-17T00:04:18.480Z,4.53
2023-01-17T00:07:03.984Z,4.57
2023-01-17T00:09:49.283Z,3.20
2023-01-17T00:12:15.894Z,1.97
2023-01-17T00:14:42.562Z,3.03
2023-01-17T00:17:09.119Z,1.90
2023-01-17T00:19:54.303Z,1.30
2023-01-17T00:22:44.119Z,1.37
2023-01-17T00:25:34.022Z,1.40
2023-01-17T00:28:00.702Z,1.00
2023-01-17T00:30:27.386Z,1.40
2023-01-17T00:32:53.890Z,1.47
2023-01-17T00:35:22.730Z,1.90
2023-01-17T00:37:49.524Z,2.30
2023-01-17T00:40:16.124Z,2.23
2023-01-17T00:42:42.709Z,1.67
2023-01-17T00:45:27.849Z,2.63
2023-01-17T00:48:13.239Z,1.93
2023-01-17T00:50:58.048Z,2.20
2023-01-17T00:53:43.385Z,3.13
2023-01-17T00:56:28.520Z,1.77
2023-01-17T00:59:13.885Z,2.23
2023-01-17T01:01:59.420Z,2.10
2023-01-17T01:04:44.851Z,1.80
2023-01-17T01:07:30.172Z,1.50
2023-01-17T01:10:15.483Z,1.93
2023-01-17T01:13:00.909Z,1.90
2023-01-17T01:15:46.099Z,1.53
2023-01-17T01:18:31.562Z,1.90
2023-01-17T01:21:21.033Z,1.30
2023-01-17T01:24:06.330Z,1.77
2023-01-17T01:26:51.599Z,2.00
2023-01-17T01:29:36.925Z,1.53
2023-01-17T01:32:22.241Z,1.50
2023-01-17T01:34:48.788Z,1.90
2023-01-17T01:37:15.292Z,2.57
2023-01-17T01:39:41.844Z,1.20
2023-01-17T01:42:15.532Z,2.87
2023-01-17T01:44:43.637Z,1.95
2023-01-17T01:47:30.448Z,1.90
2023-01-17T01:49:59.605Z,1.77
2023-01-17T01:52:27.575Z,2.80
2023-01-17T01:54:57.525Z,1.67
2023-01-17T01:57:25.820Z,2.70
2023-01-17T01:59:55.341Z,2.13
2023-01-17T02:02:22.071Z,1.50
2023-01-17T02:04:49.629Z,3.00
2023-01-17T02:07:22.049Z,2.97
2023-01-17T02:09:48.826Z,3.00
2023-01-17T02:12:16.176Z,2.73
2023-01-17T02:14:43.435Z,3.80
2023-01-17T02:17:28.719Z,3.80
2023-01-17T02:20:13.803Z,3.47
2023-01-17T02:22:43.366Z,3.60
2023-01-17T02:25:09.871Z,5.43
2023-01-17T02:27:44.461Z,4.67
2023-01-17T02:30:29.784Z,5.20
2023-01-17T02:33:01.118Z,5.47
2023-01-17T02:35:30.747Z,5.40
2023-01-17T02:38:06.421Z,5.13
2023-01-17T02:40:36.944Z,5.30
2023-01-17T02:43:06.428Z,6.90
2023-01-17T02:45:32.929Z,7.73
2023-01-17T02:47:59.425Z,7.20
2023-01-17T02:50:30.075Z,7.57
2023-01-17T02:53:02.759Z,8.10
2023-01-17T02:55:54.033Z,8.40
2023-01-17T02:58:20.740Z,8.63
2023-01-17T03:00:56.541Z,7.80
2023-01-17T03:03:30.479Z,7.80
2023-01-17T03:06:02.334Z,5.37
2023-01-17T03:08:29.275Z,7.67
2023-01-17T03:10:55.926Z,6.17
2023-01-17T03:13:22.679Z,6.73
2023-01-17T03:15:49.306Z,5.13
2023-01-17T03:18:16.328Z,7.97
2023-01-17T03:20:43.038Z,6.23
2023-01-17T03:23:09.598Z,7.20
2023-01-17T03:25:36.303Z,6.13
2023-01-17T03:28:03.615Z,6.20
2023-01-17T03:30:30.190Z,6.00
2023-01-17T03:32:56.962Z,5.60
2023-01-17T03:35:23.482Z,6.57
2023-01-17T03:37:49.996Z,5.13
2023-01-17T03:40:16.832Z,5.67
2023-01-17T03:42:43.710Z,6.33
2023-01-17T03:45:10.730Z,6.20
2023-01-17T03:47:37.221Z,6.60
2023-01-17T03:50:04.213Z,6.47
2023-01-17T03:52:30.771Z,6.67
2023-01-17T03:54:57.538Z,6.87
2023-01-17T03:57:24.012Z,6.10
2023-01-17T03:59:50.724Z,7.40
2023-01-17T04:02:17.635Z,6.60
2023-01-17T04:04:44.189Z,7.32
2023-01-17T04:07:10.750Z,9.63
2023-01-17T04:09:37.317Z,7.18
2023-01-17T04:12:04.030Z,8.00
2023-01-17T04:14:30.562Z,7.27
2023-01-17T04:16:57.419Z,7.82
2023-01-17T04:19:24.256Z,7.70
2023-01-17T04:21:50.936Z,7.55
2023-01-17T04:24:18.101Z,9.67
2023-01-17T04:26:44.925Z,8.37
2023-01-17T04:29:11.753Z,7.50
2023-01-17T04:31:38.559Z,8.52
2023-01-17T04:34:05.125Z,7.53
2023-01-17T04:36:32.314Z,9.43
2023-01-17T04:38:58.855Z,9.30
2023-01-17T04:41:25.330Z,7.78
2023-01-17T04:43:52.021Z,9.15
2023-01-17T04:46:18.702Z,7.70
2023-01-17T04:48:45.188Z,8.93
2023-01-17T04:51:11.727Z,9.20
2023-01-17T04:53:38.278Z,9.55
2023-01-17T04:56:04.972Z,9.33
2023-01-17T04:58:31.672Z,9.15
2023-01-17T05:01:05.383Z,9.82
2023-01-17T05:03:32.515Z,8.70
2023-01-17T05:05:59.555Z,9.37
2023-01-17T05:08:26.367Z,9.25
2023-01-17T05:10:53.046Z,9.73
2023-01-17T05:13:19.658Z,12.30
2023-01-17T05:15:46.777Z,11.23
2023-01-17T05:18:14.154Z,10.38
2023-01-17T05:20:40.642Z,9.93
2023-01-17T05:23:07.520Z,10.23
2023-01-17T05:25:34.286Z,11.00
2023-01-17T05:28:00.968Z,8.60
2023-01-17T05:30:28.502Z,9.85
2023-01-17T05:32:56.063Z,9.20
2023-01-17T05:35:24.765Z,10.30
2023-01-17T05:37:51.431Z,11.00
2023-01-17T05:40:19.009Z,9.60
2023-01-17T05:42:46.592Z,11.10
2023-01-17T05:45:16.738Z,9.80
2023-01-17T05:47:44.144Z,10.87
2023-01-17T05:50:11.680Z,7.50
2023-01-17T05:52:38.263Z,9.83
2023-01-17T05:55:06.611Z,8.47
2023-01-17T05:57:33.609Z,10.20
2023-01-17T06:00:00.164Z,10.10
2023-01-17T06:02:26.724Z,8.87
2023-01-17T06:04:53.285Z,9.93
2023-01-17T06:07:19.809Z,10.60
2023-01-17T06:09:46.991Z,11.10
2023-01-17T06:12:13.556Z,9.00
2023-01-17T06:14:40.066Z,11.00
2023-01-17T06:17:06.632Z,9.70
2023-01-17T06:19:33.272Z,9.60
2023-01-17T06:21:59.775Z,11.38
2023-01-17T06:24:27.385Z,10.90
2023-01-17T06:26:53.866Z,11.82
2023-01-17T06:29:20.668Z,10.73
2023-01-17T06:31:47.215Z,10.27
2023-01-17T06:34:13.692Z,11.82
2023-01-17T06:36:40.192Z,11.10
2023-01-17T06:39:06.700Z,12.77
2023-01-17T06:41:33.571Z,10.98
2023-01-17T06:44:00.200Z,11.10
2023-01-17T06:46:26.769Z,12.90
2023-01-17T06:48:53.436Z,11.13
2023-01-17T06:51:20.036Z,11.98
2023-01-17T06:53:47.801Z,10.65
2023-01-17T06:56:14.305Z,12.15
2023-01-17T06:58:40.745Z,12.60
2023-01-17T07:01:08.250Z,9.27
2023-01-17T07:03:35.050Z,9.70
2023-01-17T07:06:02.531Z,10.38
2023-01-17T07:08:29.023Z,9.85
2023-01-17T07:11:00.285Z,10.30
2023-01-17T07:13:27.195Z,10.70
2023-01-17T07:15:53.793Z,9.40
2023-01-17T07:18:23.235Z,9.82
2023-01-17T07:20:50.472Z,10.20
2023-01-17T07:23:17.460Z,10.35
2023-01-17T07:25:44.283Z,11.32
2023-01-17T07:28:10.896Z,10.25
2023-01-17T07:30:37.333Z,10.65
2023-01-17T07:33:04.160Z,11.05
2023-01-17T07:35:30.682Z,14.93
2023-01-17T07:37:57.185Z,12.90
2023-01-17T07:40:24.343Z,11.35
2023-01-17T07:42:50.939Z,13.93
2023-01-17T07:45:17.646Z,12.93
2023-01-17T07:47:44.495Z,11.05
2023-01-17T07:50:11.472Z,12.07
2023-01-17T07:52:37.938Z,12.02
2023-01-17T07:55:05.086Z,11.80
2023-01-17T07:57:32.858Z,11.48
2023-01-17T07:59:59.374Z,11.85
2023-01-17T08:02:25.870Z,11.80
2023-01-17T08:04:52.514Z,11.07
2023-01-17T08:07:19.057Z,11.60
2023-01-17T08:09:49.599Z,9.63
2023-01-17T08:12:16.891Z,12.10
2023-01-17T08:14:43.462Z,11.30
2023-01-17T08:17:11.544Z,9.90
2023-01-17T08:19:38.206Z,9.82
2023-01-17T08:22:04.769Z,9.55
2023-01-17T08:24:31.358Z,8.82
2023-01-17T08:26:58.216Z,12.10
2023-01-17T08:29:24.948Z,9.50
2023-01-17T08:31:51.656Z,9.45
2023-01-17T08:34:18.442Z,9.27
2023-01-17T08:36:45.429Z,10.30
2023-01-17T08:39:13.091Z,9.75
2023-01-17T08:41:39.660Z,17.50
2023-01-17T08:44:06.516Z,8.13
2023-01-17T08:46:33.275Z,11.10
2023-01-17T08:49:00.102Z,8.17
2023-01-17T08:51:27.453Z,8.63
2023-01-17T08:53:54.861Z,8.10
2023-01-17T08:56:21.903Z,7.00
2023-01-17T08:58:48.721Z,8.27
2023-01-17T09:01:15.971Z,8.77
2023-01-17T09:03:42.739Z,13.93
2023-01-17T09:06:10.968Z,13.47
2023-01-17T09:08:38.159Z,8.70
2023-01-17T09:11:06.706Z,8.40
2023-01-17T09:13:33.295Z,9.57
2023-01-17T09:16:00.001Z,11.30
2023-01-17T09:18:27.341Z,9.33
2023-01-17T09:20:55.085Z,8.63
2023-01-17T09:23:22.526Z,9.97
2023-01-17T09:25:53.478Z,9.13
2023-01-17T09:28:21.089Z,9.07
2023-01-17T09:30:47.685Z,9.77
2023-01-17T09:33:14.377Z,10.80
2023-01-17T09:35:41.321Z,9.90
2023-01-17T09:38:07.972Z,10.93
2023-01-17T09:40:36.517Z,8.70
2023-01-17T09:43:05.342Z,9.47
2023-01-17T09:45:33.574Z,8.80
2023-01-17T09:48:00.790Z,8.70
2023-01-17T09:50:31.975Z,7.43
2023-01-17T09:53:01.340Z,8.37
2023-01-17T09:55:49.169Z,7.70
2023-01-17T09:58:18.873Z,6.87
2023-01-17T10:00:45.766Z,7.17
2023-01-17T10:03:31.313Z,7.20
2023-01-17T10:06:04.299Z,7.30
2023-01-17T10:08:45.952Z,6.93
2023-01-17T10:11:31.704Z,8.47
2023-01-17T10:14:10.930Z,7.60
2023-01-17T10:16:56.601Z,4.40
2023-01-17T10:19:46.646Z,7.57
2023-01-17T10:22:32.093Z,6.70
2023-01-17T10:25:01.729Z,7.00
2023-01-17T10:27:31.152Z,7.50
2023-01-17T10:29:58.706Z,6.73
2023-01-17T10:32:26.699Z,6.50
2023-01-17T10:34:53.423Z,5.33
2023-01-17T10:37:26.413Z,6.30
2023-01-17T10:39:55.950Z,6.90
2023-01-17T10:42:25.296Z,6.53
2023-01-17T10:44:54.831Z,7.40
2023-01-17T10:47:22.746Z,7.80
2023-01-17T10:49:52.640Z,6.20
2023-01-17T10:52:27.617Z,6.80
2023-01-17T10:54:58.680Z,6.23
2023-01-17T10:57:27.256Z,7.87
2023-01-17T10:59:57.861Z,6.90
2023-01-17T11:02:26.159Z,8.70
2023-01-17T11:04:54.666Z,10.00
2023-01-17T11:07:23.361Z,6.03
2023-01-17T11:09:51.290Z,6.90
2023-01-17T11:12:29.043Z,8.00
2023-01-17T11:14:58.851Z,5.83
2023-01-17T11:17:27.847Z,6.07
2023-01-17T11:19:54.649Z,4.73
2023-01-17T11:22:21.601Z,4.47
2023-01-17T11:24:52.651Z,7.50
2023-01-17T11:27:23.896Z,5.73
2023-01-17T11:30:01.881Z,5.97
2023-01-17T11:32:31.112Z,5.03
2023-01-17T11:35:13.181Z,4.33
2023-01-17T11:37:48.597Z,5.93
2023-01-17T11:40:15.310Z,4.10
2023-01-17T11:42:42.089Z,4.50
2023-01-17T11:45:23.237Z,4.73
2023-01-17T11:47:49.781Z,5.53
2023-01-17T11:50:26.637Z,4.90
2023-01-17T11:52:54.785Z,4.63
2023-01-17T11:55:23.040Z,3.67
2023-01-17T11:57:50.666Z,3.30
2023-01-17T12:00:49.904Z,5.00
2023-01-17T12:03:19.687Z,5.03
2023-01-17T12:05:53.704Z,3.30
2023-01-17T12:08:33.636Z,4.10
2023-01-17T12:11:23.254Z,4.90
2023-01-17T12:14:22.326Z,3.93
2023-01-17T12:16:56.149Z,4.07
2023-01-17T12:19:38.895Z,2.93
2023-01-17T12:22:05.561Z,3.67
2023-01-17T12:24:40.396Z,4.20
2023-01-17T12:27:13.970Z,2.10
2023-01-17T12:29:47.075Z,2.70
2023-01-17T12:32:23.506Z,2.70
2023-01-17T12:34:54.174Z,2.10
2023-01-17T12:37:23.969Z,2.10
2023-01-17T12:40:14.266Z,1.60
2023-01-17T12:42:43.924Z,2.53
2023-01-17T12:45:15.602Z,2.70
2023-01-17T12:47:45.203Z,2.20
2023-01-17T12:50:20.319Z,3.27
2023-01-17T12:52:46.930Z,2.70
2023-01-17T12:55:20.166Z,3.37
2023-01-17T12:57:51.850Z,2.90
2023-01-17T13:00:23.874Z,2.63
2023-01-17T13:02:53.589Z,3.53
2023-01-17T13:05:23.980Z,2.27
2023-01-17T13:08:02.366Z,3.43
2023-01-17T13:10:32.264Z,2.77
2023-01-17T13:13:02.689Z,2.60
2023-01-17T13:15:32.427Z,2.40
2023-01-17T13:18:31.121Z,3.20
2023-01-17T13:21:06.259Z,2.17
2023-01-17T13:23:44.913Z,2.50
2023-01-17T13:26:27.998Z,2.20
2023-01-17T13:29:00.628Z,2.70
2023-01-17T13:31:30.600Z,2.60
2023-01-17T13:34:11.528Z,3.60
2023-01-17T13:36:47.534Z,3.80
2023-01-17T13:39:27.057Z,3.77
2023-01-17T13:41:59.539Z,3.20
2023-01-17T13:44:27.751Z,3.40
2023-01-17T13:47:27.688Z,2.77
2023-01-17T13:49:56.543Z,3.40
2023-01-17T13:52:26.478Z,2.63
2023-01-17T13:54:54.787Z,2.73
2023-01-17T13:57:32.928Z,3.80
2023-01-17T14:00:00.231Z,2.83
2023-01-17T14:02:33.285Z,3.30
2023-01-17T14:05:09.403Z,2.23
2023-01-17T14:07:39.924Z,3.30
2023-01-17T14:10:25.623Z,2.60
2023-01-17T14:12:52.207Z,2.60
2023-01-17T14:15:20.994Z,2.80
2023-01-17T14:17:50.138Z,3.17
2023-01-17T14:20:17.327Z,3.40
2023-01-17T14:22:53.605Z,3.00
2023-01-17T14:25:25.076Z,2.80
2023-01-17T14:27:54.502Z,2.93
2023-01-17T14:30:33.366Z,1.90
2023-01-17T14:33:06.054Z,2.60
2023-01-17T14:35:49.858Z,2.90
2023-01-17T14:38:24.183Z,3.00
2023-01-17T14:41:29.510Z,2.93
2023-01-17T14:43:56.481Z,2.90
2023-01-17T14:46:23.282Z,2.80
2023-01-17T14:48:50.847Z,3.17
2023-01-17T14:51:21.642Z,5.00
2023-01-17T14:53:52.228Z,2.80
2023-01-17T14:56:18.842Z,2.53
2023-01-17T14:58:48.563Z,4.00
2023-01-17T15:01:18.890Z,2.77
2023-01-17T15:03:55.357Z,3.70
2023-01-17T15:06:29.128Z,2.20
2023-01-17T15:08:56.021Z,3.10
2023-01-17T15:11:25.460Z,2.90
2023-01-17T15:13:54.942Z,3.23
2023-01-17T15:16:21.625Z,2.73
2023-01-17T15:18:48.762Z,2.90
2023-01-17T15:21:20.379Z,3.77
2023-01-17T15:23:54.357Z,3.63
2023-01-17T15:26:25.265Z,3.30
2023-01-17T15:29:02.662Z,4.07
2023-01-17T15:31:55.678Z,7.50
2023-01-17T15:34:33.553Z,2.80
2023-01-17T15:37:01.526Z,4.03
2023-01-17T15:39:30.320Z,2.50
2023-01-17T15:42:05.493Z,4.20
2023-01-17T15:44:47.662Z,4.20
2023-01-17T15:47:29.433Z,2.95
2023-01-17T15:49:56.423Z,3.97
2023-01-17T15:52:23.190Z,4.25
2023-01-17T15:54:56.001Z,4.15
2023-01-17T15:57:22.868Z,3.42
2023-01-17T15:59:53.020Z,5.25
2023-01-17T16:02:32.064Z,4.00
2023-01-17T16:04:59.424Z,3.88
2023-01-17T16:07:34.100Z,4.50
2023-01-17T16:10:18.845Z,4.45
2023-01-17T16:12:46.639Z,5.43
2023-01-17T16:15:14.638Z,5.47
2023-01-17T16:17:42.955Z,9.95
2023-01-17T16:20:15.825Z,10.05
2023-01-17T16:22:44.022Z,12.07
2023-01-17T16:25:15.274Z,11.43
2023-01-17T16:27:43.197Z,11.45
2023-01-17T16:30:11.001Z,11.15
2023-01-17T16:32:38.077Z,11.63
2023-01-17T16:35:06.348Z,13.10
2023-01-17T16:37:32.968Z,12.23
2023-01-17T16:39:59.722Z,12.25
2023-01-17T16:42:28.671Z,10.23
2023-01-17T16:44:55.381Z,10.50
2023-01-17T16:47:22.490Z,10.63
2023-01-17T16:49:49.111Z,9.32
2023-01-17T16:52:15.872Z,8.18
2023-01-17T16:54:42.514Z,8.98
2023-01-17T16:57:09.085Z,9.60
2023-01-17T16:59:49.791Z,9.45
2023-01-17T17:02:18.629Z,10.02
2023-01-17T17:04:45.669Z,7.75
2023-01-17T17:07:12.371Z,7.75
2023-01-17T17:09:39.197Z,9.18
2023-01-17T17:12:06.023Z,10.10
2023-01-17T17:14:32.924Z,10.88
2023-01-17T17:17:02.460Z,10.48
2023-01-17T17:19:29.223Z,9.32
2023-01-17T17:21:59.508Z,10.15
2023-01-17T17:24:26.265Z,9.07
2023-01-17T17:26:52.863Z,8.75
2023-01-17T17:29:20.047Z,9.57
2023-01-17T17:31:47.111Z,11.48
2023-01-17T17:34:14.379Z,11.18
2023-01-17T17:36:41.189Z,10.35
2023-01-17T17:39:10.667Z,10.20
2023-01-17T17:41:40.742Z,8.88
2023-01-17T17:44:07.428Z,8.68
2023-01-17T17:46:34.975Z,10.02
2023-01-17T17:49:01.799Z,7.45
2023-01-17T17:51:30.056Z,8.07
2023-01-17T17:54:00.925Z,6.95
2023-01-17T17:56:28.609Z,6.30
2023-01-17T17:58:55.410Z,7.60
2023-01-17T18:01:24.921Z,7.93
2023-01-17T18:03:52.472Z,7.60
2023-01-17T18:06:19.595Z,7.63
2023-01-17T18:08:46.698Z,9.65
2023-01-17T18:11:19.669Z,10.95
2023-01-17T18:13:53.005Z,8.50
2023-01-17T18:16:21.089Z,8.00
2023-01-17T18:18:49.668Z,9.20
2023-01-17T18:21:23.753Z,13.80
2023-01-17T18:23:53.287Z,12.57
2023-01-17T18:26:19.939Z,11.52
2023-01-17T18:28:46.592Z,10.65
2023-01-17T18:31:13.469Z,11.90
2023-01-17T18:33:40.728Z,11.10
2023-01-17T18:36:08.616Z,11.50
2023-01-17T18:38:39.600Z,11.60
2023-01-17T18:41:13.672Z,11.40
2023-01-17T18:43:40.632Z,12.20
2023-01-17T18:46:07.955Z,13.02
2023-01-17T18:48:36.122Z,13.32
2023-01-17T18:51:05.135Z,15.85
2023-01-17T18:53:32.799Z,16.67
2023-01-17T18:56:00.132Z,15.75
2023-01-17T18:58:27.795Z,18.65
2023-01-17T19:00:55.010Z,16.85
2023-01-17T19:03:26.283Z,17.70
2023-01-17T19:05:52.969Z,17.20
2023-01-17T19:08:19.505Z,19.00
2023-01-17T19:10:46.654Z,20.08
2023-01-17T19:13:13.418Z,18.48
2023-01-17T19:15:41.720Z,22.00
2023-01-17T19:18:08.342Z,17.73
2023-01-17T19:20:35.267Z,21.13
2023-01-17T19:23:01.932Z,19.42
2023-01-17T19:25:28.695Z,20.65
2023-01-17T19:27:55.672Z,20.08
2023-01-17T19:30:22.466Z,18.98
2023-01-17T19:32:49.851Z,23.00
2023-01-17T19:35:17.577Z,21.55
2023-01-17T19:37:48.071Z,20.48
2023-01-17T19:40:15.568Z,22.33
2023-01-17T19:42:42.289Z,23.90
2023-01-17T19:45:10.002Z,20.02
2023-01-17T19:47:37.076Z,21.00
2023-01-17T19:50:04.717Z,19.85
2023-01-17T19:52:31.654Z,22.02
2023-01-17T19:54:58.438Z,21.02
2023-01-17T19:57:26.640Z,19.83
2023-01-17T19:59:53.876Z,21.20
2023-01-17T20:02:20.793Z,20.45
2023-01-17T20:04:47.521Z,23.50
2023-01-17T20:07:14.300Z,24.83
2023-01-17T20:09:40.849Z,21.52
2023-01-17T20:12:07.541Z,29.00
2023-01-17T20:14:34.283Z,39.90
2023-01-17T20:17:00.896Z,28.90
2023-01-17T20:19:27.452Z,28.77
2023-01-17T20:21:54.124Z,27.88
2023-01-17T20:24:20.731Z,28.05
2023-01-17T20:26:47.488Z,26.50
2023-01-17T20:29:14.944Z,27.27
2023-01-17T20:31:42.744Z,30.70
2023-01-17T20:34:11.514Z,28.30
2023-01-17T20:36:38.724Z,24.50
2023-01-17T20:39:07.100Z,24.83
2023-01-17T20:41:35.114Z,25.95
2023-01-17T20:44:02.498Z,26.05
2023-01-17T20:46:31.280Z,28.48
2023-01-17T20:48:58.246Z,28.00
2023-01-17T20:51:25.759Z,26.45
2023-01-17T20:53:53.765Z,23.73
2023-01-17T20:56:20.514Z,24.25
2023-01-17T20:58:47.320Z,23.23
2023-01-17T21:01:19.692Z,23.40
2023-01-17T21:03:48.140Z,24.63
2023-01-17T21:06:14.907Z,26.52
2023-01-17T21:08:42.451Z,28.05
2023-01-17T21:11:10.486Z,29.52
2023-01-17T21:13:37.132Z,29.50
2023-01-17T21:16:03.829Z,27.67
2023-01-17T21:18:32.199Z,30.25
2023-01-17T21:21:07.817Z,31.60
2023-01-17T21:23:34.843Z,28.80
2023-01-17T21:26:01.383Z,31.92
2023-01-17T21:28:30.440Z,33.00
2023-01-17T21:30:57.317Z,32.53
2023-01-17T21:33:24.976Z,32.45
2023-01-17T21:35:51.981Z,34.80
2023-01-17T21:38:18.618Z,36.75
2023-01-17T21:40:45.237Z,34.58
2023-01-17T21:43:11.815Z,33.67
2023-01-17T21:45:38.879Z,33.47
2023-01-17T21:48:06.845Z,33.10
2023-01-17T21:50:34.118Z,31.52
2023-01-17T21:53:00.989Z,35.03
2023-01-17T21:55:46.405Z,33.40
2023-01-17T21:58:32.484Z,36.05
2023-01-17T22:01:09.022Z,36.38
2023-01-17T22:03:36.036Z,33.20
2023-01-17T22:06:04.268Z,33.13
2023-01-17T22:08:31.762Z,33.10
2023-01-17T22:11:01.964Z,34.58
2023-01-17T22:13:30.598Z,30.42
2023-01-17T22:15:58.469Z,31.80
2023-01-17T22:18:26.750Z,31.13
2023-01-17T22:20:53.317Z,30.98
2023-01-17T22:23:20.887Z,30.23
2023-01-17T22:25:47.462Z,28.17
2023-01-17T22:28:14.175Z,28.15
2023-01-17T22:30:41.882Z,31.80
2023-01-17T22:33:08.646Z,31.63
2023-01-17T22:35:35.161Z,30.60
2023-01-17T22:38:01.700Z,31.17
2023-01-17T22:40:28.253Z,29.33
2023-01-17T22:42:55.097Z,27.63
2023-01-17T22:45:21.835Z,26.23
2023-01-17T22:47:48.386Z,26.38
2023-01-17T22:50:14.907Z,29.90
2023-01-17T22:52:42.196Z,27.98
2023-01-17T22:55:09.030Z,30.42
2023-01-17T22:57:35.769Z,27.83
2023-01-17T23:00:02.280Z,28.40
2023-01-17T23:02:28.932Z,32.58
2023-01-17T23:04:55.685Z,39.92
2023-01-17T23:07:26.413Z,42.70
2023-01-17T23:09:54.668Z,40.22
2023-01-17T23:12:21.455Z,36.95
2023-01-17T23:15:07.868Z,33.00
2023-01-17T23:17:54.068Z,32.50
2023-01-17T23:20:20.664Z,33.25
2023-01-17T23:22:47.139Z,31.90
2023-01-17T23:25:14.278Z,34.55
2023-01-17T23:28:03.306Z,30.15
2023-01-17T23:30:35.897Z,31.08
2023-01-17T23:33:06.344Z,34.83
2023-01-17T23:35:34.210Z,33.95
2023-01-17T23:38:20.705Z,34.30
2023-01-17T23:41:05.987Z,35.30
2023-01-17T23:43:32.764Z,35.78
2023-01-17T23:45:59.251Z,34.92
2023-01-17T23:48:28.727Z,37.45
2023-01-17T23:50:59.671Z,35.15
2023-01-17T23:53:26.928Z,35.08
2023-01-17T23:55:54.577Z,34.92
2023-01-17T23:58:21.842Z,33.88
